South Fork, PA (15956)

3:59 AM EST on December 10, 2016 (GMT -0500)
| | Change Station

Elev -9999 ft 0.00 °N, 0.00 °E | Updated 1 minute ago

Overcast
Overcast
71 °F
Feels Like 71 °F
N
5
Wind Variable Wind from SW
Gusts mph

Today
High -- | Low -- °F
--% Chance of Precip.
Yesterday
High -- | Low -- °F
Precip. -- in
Pressure 30.41 in
Visibility 8.0 miles
Clouds Mostly Cloudy 1600 ft
Overcast 2200 ft
Dew Point 60 °F
Humidity 69%
Rainfall --
Snow Depth Not available.
7:27 AM 4:48 PM
Waxing Gibbous, 82% visible
METAR KJST 100854Z AUTO 28011G20KT 8SM -SN BKN016 OVC022 M07/M10 A3030 RMK AO2 PK WND 25026/0802 SNB0755 SLP296 P0000 60000 T10671100 51005 TSNO
Pressure 30.41 in
Visibility 8.0 miles
Clouds Mostly Cloudy 1600 ft
Overcast 2200 ft
Dew Point 60 °F
Humidity 69%
Rainfall --
Snow Depth Not available.
7:27 AM 4:48 PM
Waxing Gibbous, 82% visible
METAR KJST 100854Z AUTO 28011G20KT 8SM -SN BKN016 OVC022 M07/M10 A3030 RMK AO2 PK WND 25026/0802 SNB0755 SLP296 P0000 60000 T10671100 51005 TSNO

10-Day Weather Forecast

Almanac

Astronomy

Dec. 10, 2016 Rise Set
Actual Time
Civil Twilight
Nautical Twilight
Astronomical Twilight
Moon
Length of Visible Light
Length of Day
Tomorrow will be .
, % of the Moon is Illuminated

Today's Extremes

State Highs State Lows

Community

WunderPhotos

Upload Photos

1,956,538 photos uploaded!

WunderBlog® & News

Nearby

Air Quality

  Air Quality AQ Index Pollutant
Not available.

Snow Depth

Station Depth Elevation

Earthquake Activity

City Distance Mag. Time & Date
Minimum magnitude displayed is 2.5.

Coastal Water Temperatures

Place Temperature

Stations

Nearby Weather Stations

Station Location Temp. Windchill Dew Point Humidity Wind Precip. Elev Updated Type
                   

Watches & Warnings

There are currently no watches in effect.